sensor_id;sensor_type;location;lat;lon;timestamp;temperature;humidity
19970;DHT22;10146;47.754;9.566;2023-01-20T00:01:41;-1.50;99.90
19970;DHT22;10146;47.754;9.566;2023-01-20T00:04:08;-1.40;99.90
19970;DHT22;10146;47.754;9.566;2023-01-20T00:06:34;-1.40;99.90
19970;DHT22;10146;47.754;9.566;2023-01-20T00:09:01;-1.60;99.90
19970;DHT22;10146;47.754;9.566;2023-01-20T00:11:28;-1.60;99.90
19970;DHT22;10146;47.754;9.566;2023-01-20T00:13:58;-1.60;99.90
19970;DHT22;10146;47.754;9.566;2023-01-20T00:16:25;-1.60;99.90
19970;DHT22;10146;47.754;9.566;2023-01-20T00:18:51;-1.40;99.90
19970;DHT22;10146;47.754;9.566;2023-01-20T00:21:17;-1.50;99.90
19970;DHT22;10146;47.754;9.566;2023-01-20T00:23:44;-1.50;99.90
19970;DHT22;10146;47.754;9.566;2023-01-20T00:26:12;-1.50;99.90
19970;DHT22;10146;47.754;9.566;2023-01-20T00:28:39;-1.50;99.90
19970;DHT22;10146;47.754;9.566;2023-01-20T00:31:19;-1.40;99.90
19970;DHT22;10146;47.754;9.566;2023-01-20T00:33:46;-1.50;99.90
19970;DHT22;10146;47.754;9.566;2023-01-20T00:36:13;-1.30;99.90
19970;DHT22;10146;47.754;9.566;2023-01-20T00:38:39;-1.40;99.90
19970;DHT22;10146;47.754;9.566;2023-01-20T00:41:05;-1.40;99.90
19970;DHT22;10146;47.754;9.566;2023-01-20T00:43:31;-1.50;99.90
19970;DHT22;10146;47.754;9.566;2023-01-20T00:45:57;-1.50;99.90
19970;DHT22;10146;47.754;9.566;2023-01-20T00:48:23;-1.40;99.90
19970;DHT22;10146;47.754;9.566;2023-01-20T00:50:48;-1.30;99.90
19970;DHT22;10146;47.754;9.566;2023-01-20T00:53:14;-1.30;99.90
19970;DHT22;10146;47.754;9.566;2023-01-20T00:55:40;-1.40;99.90
19970;DHT22;10146;47.754;9.566;2023-01-20T00:58:05;-1.40;99.90
19970;DHT22;10146;47.754;9.566;2023-01-20T01:00:31;-1.40;99.90
19970;DHT22;10146;47.754;9.566;2023-01-20T01:02:56;-1.50;99.90
19970;DHT22;10146;47.754;9.566;2023-01-20T01:05:22;-1.60;99.90
19970;DHT22;10146;47.754;9.566;2023-01-20T01:07:48;-1.50;99.90
19970;DHT22;10146;47.754;9.566;2023-01-20T01:10:14;-1.60;99.90
19970;DHT22;10146;47.754;9.566;2023-01-20T01:12:40;-1.60;99.90
19970;DHT22;10146;47.754;9.566;2023-01-20T01:15:06;-1.60;99.90
19970;DHT22;10146;47.754;9.566;2023-01-20T01:17:32;-1.60;99.90
19970;DHT22;10146;47.754;9.566;2023-01-20T01:19:58;-1.70;99.90
19970;DHT22;10146;47.754;9.566;2023-01-20T01:22:23;-1.70;99.90
19970;DHT22;10146;47.754;9.566;2023-01-20T01:24:49;-1.70;99.90
19970;DHT22;10146;47.754;9.566;2023-01-20T01:27:14;-1.60;99.90
19970;DHT22;10146;47.754;9.566;2023-01-20T01:29:40;-1.60;99.90
19970;DHT22;10146;47.754;9.566;2023-01-20T01:32:06;-1.70;99.90
19970;DHT22;10146;47.754;9.566;2023-01-20T01:34:32;-1.70;99.90
19970;DHT22;10146;47.754;9.566;2023-01-20T01:36:58;-1.70;99.90
19970;DHT22;10146;47.754;9.566;2023-01-20T01:39:24;-1.70;99.90
19970;DHT22;10146;47.754;9.566;2023-01-20T01:41:49;-1.60;99.90
19970;DHT22;10146;47.754;9.566;2023-01-20T01:44:15;-1.60;99.90
19970;DHT22;10146;47.754;9.566;2023-01-20T01:46:42;-1.60;99.90
19970;DHT22;10146;47.754;9.566;2023-01-20T01:49:12;-1.70;99.90
19970;DHT22;10146;47.754;9.566;2023-01-20T01:51:53;-1.70;99.90
19970;DHT22;10146;47.754;9.566;2023-01-20T01:54:25;-1.60;99.90
19970;DHT22;10146;47.754;9.566;2023-01-20T01:56:52;-1.50;99.90
19970;DHT22;10146;47.754;9.566;2023-01-20T01:59:19;-1.60;99.90
19970;DHT22;10146;47.754;9.566;2023-01-20T02:01:48;-1.50;99.90
19970;DHT22;10146;47.754;9.566;2023-01-20T02:04:17;-1.60;99.90
19970;DHT22;10146;47.754;9.566;2023-01-20T02:09:40;-1.50;99.90
19970;DHT22;10146;47.754;9.566;2023-01-20T02:12:09;-1.50;99.90
19970;DHT22;10146;47.754;9.566;2023-01-20T02:14:48;-1.60;99.90
19970;DHT22;10146;47.754;9.566;2023-01-20T02:17:20;-1.50;99.90
19970;DHT22;10146;47.754;9.566;2023-01-20T02:31:31;-1.60;99.90
19970;DHT22;10146;47.754;9.566;2023-01-20T02:34:05;-1.60;99.90
19970;DHT22;10146;47.754;9.566;2023-01-20T02:39:18;-1.40;99.90
19970;DHT22;10146;47.754;9.566;2023-01-20T02:41:57;-1.40;99.90
19970;DHT22;10146;47.754;9.566;2023-01-20T02:44:27;-1.50;99.90
19970;DHT22;10146;47.754;9.566;2023-01-20T02:47:01;-1.60;99.90
19970;DHT22;10146;47.754;9.566;2023-01-20T02:49:54;-1.60;99.90
19970;DHT22;10146;47.754;9.566;2023-01-20T02:52:25;-1.60;99.90
19970;DHT22;10146;47.754;9.566;2023-01-20T02:54:54;-1.40;99.90
19970;DHT22;10146;47.754;9.566;2023-01-20T02:57:29;-1.40;99.90
19970;DHT22;10146;47.754;9.566;2023-01-20T03:00:00;-1.50;99.90
19970;DHT22;10146;47.754;9.566;2023-01-20T03:02:27;-1.60;99.90
19970;DHT22;10146;47.754;9.566;2023-01-20T03:05:16;-1.50;99.90
19970;DHT22;10146;47.754;9.566;2023-01-20T03:07:44;-1.40;99.90
19970;DHT22;10146;47.754;9.566;2023-01-20T03:10:15;-1.50;99.90
19970;DHT22;10146;47.754;9.566;2023-01-20T03:12:49;-1.50;99.90
19970;DHT22;10146;47.754;9.566;2023-01-20T03:15:21;-1.50;99.90
19970;DHT22;10146;47.754;9.566;2023-01-20T03:17:48;-1.50;99.90
19970;DHT22;10146;47.754;9.566;2023-01-20T03:20:14;-1.40;99.90
19970;DHT22;10146;47.754;9.566;2023-01-20T03:22:39;-1.40;99.90
19970;DHT22;10146;47.754;9.566;2023-01-20T03:25:06;-1.30;99.90
19970;DHT22;10146;47.754;9.566;2023-01-20T03:27:32;-1.30;99.90
19970;DHT22;10146;47.754;9.566;2023-01-20T03:29:58;-1.50;99.90
19970;DHT22;10146;47.754;9.566;2023-01-20T03:32:24;-1.50;99.90
19970;DHT22;10146;47.754;9.566;2023-01-20T03:34:53;-1.60;99.90
19970;DHT22;10146;47.754;9.566;2023-01-20T03:37:20;-1.60;99.90
19970;DHT22;10146;47.754;9.566;2023-01-20T03:39:46;-1.50;99.90
19970;DHT22;10146;47.754;9.566;2023-01-20T03:45:08;-1.60;99.90
19970;DHT22;10146;47.754;9.566;2023-01-20T03:48:12;-1.70;99.90
19970;DHT22;10146;47.754;9.566;2023-01-20T03:50:51;-1.80;99.90
19970;DHT22;10146;47.754;9.566;2023-01-20T03:53:37;-1.70;99.90
19970;DHT22;10146;47.754;9.566;2023-01-20T03:58:51;-1.60;99.90
19970;DHT22;10146;47.754;9.566;2023-01-20T04:01:24;-1.70;99.90
19970;DHT22;10146;47.754;9.566;2023-01-20T04:03:52;-1.70;99.90
19970;DHT22;10146;47.754;9.566;2023-01-20T04:06:21;-1.70;99.90
19970;DHT22;10146;47.754;9.566;2023-01-20T04:08:57;-1.60;99.90
19970;DHT22;10146;47.754;9.566;2023-01-20T04:11:23;-1.40;99.90
19970;DHT22;10146;47.754;9.566;2023-01-20T04:13:51;-1.60;99.90
19970;DHT22;10146;47.754;9.566;2023-01-20T04:16:18;-1.60;99.90
19970;DHT22;10146;47.754;9.566;2023-01-20T04:18:48;-1.60;99.90
19970;DHT22;10146;47.754;9.566;2023-01-20T04:21:31;-1.60;99.90
19970;DHT22;10146;47.754;9.566;2023-01-20T04:24:05;-1.60;99.90
19970;DHT22;10146;47.754;9.566;2023-01-20T04:26:33;-1.50;99.90
19970;DHT22;10146;47.754;9.566;2023-01-20T04:28:58;-1.50;99.90
19970;DHT22;10146;47.754;9.566;2023-01-20T04:31:24;-1.60;99.90
19970;DHT22;10146;47.754;9.566;2023-01-20T04:33:49;-1.60;99.90
19970;DHT22;10146;47.754;9.566;2023-01-20T04:36:15;-1.50;99.90
19970;DHT22;10146;47.754;9.566;2023-01-20T04:38:41;-1.60;99.90
19970;DHT22;10146;47.754;9.566;2023-01-20T04:41:09;-1.50;99.90
19970;DHT22;10146;47.754;9.566;2023-01-20T04:43:35;-1.50;99.90
19970;DHT22;10146;47.754;9.566;2023-01-20T04:46:01;-1.50;99.90
19970;DHT22;10146;47.754;9.566;2023-01-20T04:48:26;-1.60;99.90
19970;DHT22;10146;47.754;9.566;2023-01-20T04:50:52;-1.60;99.90
19970;DHT22;10146;47.754;9.566;2023-01-20T04:53:17;-1.50;99.90
19970;DHT22;10146;47.754;9.566;2023-01-20T04:55:44;-1.60;99.90
19970;DHT22;10146;47.754;9.566;2023-01-20T04:58:09;-1.60;99.90
19970;DHT22;10146;47.754;9.566;2023-01-20T05:00:35;-1.60;99.90
19970;DHT22;10146;47.754;9.566;2023-01-20T05:03:01;-1.50;99.90
19970;DHT22;10146;47.754;9.566;2023-01-20T05:05:27;-1.60;99.90
19970;DHT22;10146;47.754;9.566;2023-01-20T05:07:53;-1.60;99.90
19970;DHT22;10146;47.754;9.566;2023-01-20T05:10:20;-1.60;99.90
19970;DHT22;10146;47.754;9.566;2023-01-20T05:12:46;-1.60;99.90
19970;DHT22;10146;47.754;9.566;2023-01-20T05:15:11;-1.60;99.90
19970;DHT22;10146;47.754;9.566;2023-01-20T05:17:37;-1.60;99.90
19970;DHT22;10146;47.754;9.566;2023-01-20T05:20:03;-1.60;99.90
19970;DHT22;10146;47.754;9.566;2023-01-20T05:22:29;-1.60;99.90
19970;DHT22;10146;47.754;9.566;2023-01-20T05:24:57;-1.60;99.90
19970;DHT22;10146;47.754;9.566;2023-01-20T05:27:23;-1.60;99.90
19970;DHT22;10146;47.754;9.566;2023-01-20T05:29:49;-1.60;99.90
19970;DHT22;10146;47.754;9.566;2023-01-20T05:32:15;-1.70;99.90
19970;DHT22;10146;47.754;9.566;2023-01-20T05:34:40;-1.70;99.90
19970;DHT22;10146;47.754;9.566;2023-01-20T05:37:06;-1.70;99.90
19970;DHT22;10146;47.754;9.566;2023-01-20T05:39:31;-1.70;99.90
19970;DHT22;10146;47.754;9.566;2023-01-20T05:41:57;-1.70;99.90
19970;DHT22;10146;47.754;9.566;2023-01-20T05:44:22;-1.70;99.90
19970;DHT22;10146;47.754;9.566;2023-01-20T05:46:48;-1.70;99.90
19970;DHT22;10146;47.754;9.566;2023-01-20T05:49:14;-1.70;99.90
19970;DHT22;10146;47.754;9.566;2023-01-20T05:51:39;-1.80;99.90
19970;DHT22;10146;47.754;9.566;2023-01-20T05:54:05;-1.80;99.90
19970;DHT22;10146;47.754;9.566;2023-01-20T05:56:30;-1.80;99.90
19970;DHT22;10146;47.754;9.566;2023-01-20T05:58:56;-1.80;99.90
19970;DHT22;10146;47.754;9.566;2023-01-20T06:02:29;-1.80;99.90
19970;DHT22;10146;47.754;9.566;2023-01-20T06:04:55;-1.70;99.90
19970;DHT22;10146;47.754;9.566;2023-01-20T06:07:21;-1.50;99.90
19970;DHT22;10146;47.754;9.566;2023-01-20T06:09:46;-1.30;99.90
19970;DHT22;10146;47.754;9.566;2023-01-20T06:12:12;-1.50;99.90
19970;DHT22;10146;47.754;9.566;2023-01-20T06:14:37;-1.50;99.90
19970;DHT22;10146;47.754;9.566;2023-01-20T06:17:03;-1.60;99.90
19970;DHT22;10146;47.754;9.566;2023-01-20T06:19:28;-1.80;99.90
19970;DHT22;10146;47.754;9.566;2023-01-20T06:21:54;-1.80;99.90
19970;DHT22;10146;47.754;9.566;2023-01-20T06:24:20;-1.70;99.90
19970;DHT22;10146;47.754;9.566;2023-01-20T06:26:45;-1.70;99.90
19970;DHT22;10146;47.754;9.566;2023-01-20T06:29:11;-1.80;99.90
19970;DHT22;10146;47.754;9.566;2023-01-20T06:31:36;-1.50;99.90
19970;DHT22;10146;47.754;9.566;2023-01-20T06:34:02;-1.40;99.90
19970;DHT22;10146;47.754;9.566;2023-01-20T06:36:28;-1.50;99.90
19970;DHT22;10146;47.754;9.566;2023-01-20T06:38:53;-1.70;99.90
19970;DHT22;10146;47.754;9.566;2023-01-20T06:41:19;-1.80;99.90
19970;DHT22;10146;47.754;9.566;2023-01-20T06:43:45;-1.80;99.90
19970;DHT22;10146;47.754;9.566;2023-01-20T06:46:13;-1.70;99.90
19970;DHT22;10146;47.754;9.566;2023-01-20T06:48:40;-1.60;99.90
19970;DHT22;10146;47.754;9.566;2023-01-20T06:51:09;-1.70;99.90
19970;DHT22;10146;47.754;9.566;2023-01-20T06:53:36;-1.70;99.90
19970;DHT22;10146;47.754;9.566;2023-01-20T06:56:02;-1.50;99.90
19970;DHT22;10146;47.754;9.566;2023-01-20T06:58:30;-1.50;99.90
19970;DHT22;10146;47.754;9.566;2023-01-20T07:00:57;-1.60;99.90
19970;DHT22;10146;47.754;9.566;2023-01-20T07:03:23;-1.70;99.90
19970;DHT22;10146;47.754;9.566;2023-01-20T07:05:56;-1.50;99.90
19970;DHT22;10146;47.754;9.566;2023-01-20T07:08:22;-1.60;99.90
19970;DHT22;10146;47.754;9.566;2023-01-20T07:10:50;-1.60;99.90
19970;DHT22;10146;47.754;9.566;2023-01-20T07:13:16;-1.50;99.90
19970;DHT22;10146;47.754;9.566;2023-01-20T07:15:41;-1.60;99.90
19970;DHT22;10146;47.754;9.566;2023-01-20T07:18:07;-1.60;99.90
19970;DHT22;10146;47.754;9.566;2023-01-20T07:20:32;-1.70;99.90
19970;DHT22;10146;47.754;9.566;2023-01-20T07:22:59;-1.70;99.90
19970;DHT22;10146;47.754;9.566;2023-01-20T07:25:24;-1.70;99.90
19970;DHT22;10146;47.754;9.566;2023-01-20T07:27:50;-1.60;99.90
19970;DHT22;10146;47.754;9.566;2023-01-20T07:30:16;-1.60;99.90
19970;DHT22;10146;47.754;9.566;2023-01-20T07:32:42;-1.40;99.90
19970;DHT22;10146;47.754;9.566;2023-01-20T07:35:07;-1.50;99.90
19970;DHT22;10146;47.754;9.566;2023-01-20T07:37:33;-1.50;99.90
19970;DHT22;10146;47.754;9.566;2023-01-20T07:39:59;-1.60;99.90
19970;DHT22;10146;47.754;9.566;2023-01-20T07:42:25;-1.50;99.90
19970;DHT22;10146;47.754;9.566;2023-01-20T07:44:50;-1.60;99.90
19970;DHT22;10146;47.754;9.566;2023-01-20T07:47:16;-1.50;99.90
19970;DHT22;10146;47.754;9.566;2023-01-20T07:49:42;-1.50;99.90
19970;DHT22;10146;47.754;9.566;2023-01-20T07:52:07;-1.50;99.90
19970;DHT22;10146;47.754;9.566;2023-01-20T07:54:33;-1.40;99.90
19970;DHT22;10146;47.754;9.566;2023-01-20T07:56:58;-1.50;99.90
19970;DHT22;10146;47.754;9.566;2023-01-20T07:59:24;-1.30;99.90
19970;DHT22;10146;47.754;9.566;2023-01-20T08:01:50;-1.40;99.90
19970;DHT22;10146;47.754;9.566;2023-01-20T08:04:16;-1.30;99.90
19970;DHT22;10146;47.754;9.566;2023-01-20T08:06:42;-1.30;99.90
19970;DHT22;10146;47.754;9.566;2023-01-20T08:09:08;-1.40;99.90
19970;DHT22;10146;47.754;9.566;2023-01-20T08:11:36;-1.20;99.90
19970;DHT22;10146;47.754;9.566;2023-01-20T08:14:02;-1.10;99.90
19970;DHT22;10146;47.754;9.566;2023-01-20T08:16:28;-1.30;99.90
19970;DHT22;10146;47.754;9.566;2023-01-20T08:18:54;-1.30;99.90
19970;DHT22;10146;47.754;9.566;2023-01-20T08:21:22;-1.30;99.90
19970;DHT22;10146;47.754;9.566;2023-01-20T08:23:48;-1.20;99.90
19970;DHT22;10146;47.754;9.566;2023-01-20T08:26:14;-1.20;99.90
19970;DHT22;10146;47.754;9.566;2023-01-20T08:28:40;-1.10;99.90
19970;DHT22;10146;47.754;9.566;2023-01-20T08:31:12;-1.20;99.90
19970;DHT22;10146;47.754;9.566;2023-01-20T08:33:38;-1.20;99.90
19970;DHT22;10146;47.754;9.566;2023-01-20T08:36:08;-1.10;99.90
19970;DHT22;10146;47.754;9.566;2023-01-20T08:38:34;-1.20;99.90
19970;DHT22;10146;47.754;9.566;2023-01-20T08:41:01;-1.20;99.90
19970;DHT22;10146;47.754;9.566;2023-01-20T08:43:26;-1.10;99.90
19970;DHT22;10146;47.754;9.566;2023-01-20T08:46:00;-1.10;99.90
19970;DHT22;10146;47.754;9.566;2023-01-20T08:48:26;-1.20;99.90
19970;DHT22;10146;47.754;9.566;2023-01-20T08:50:52;-1.30;99.90
19970;DHT22;10146;47.754;9.566;2023-01-20T08:53:18;-1.10;99.90
19970;DHT22;10146;47.754;9.566;2023-01-20T08:55:52;-0.90;99.90
19970;DHT22;10146;47.754;9.566;2023-01-20T08:58:18;-0.80;99.90
19970;DHT22;10146;47.754;9.566;2023-01-20T09:00:43;-0.90;99.90
19970;DHT22;10146;47.754;9.566;2023-01-20T09:03:11;-1.00;99.90
19970;DHT22;10146;47.754;9.566;2023-01-20T09:05:36;-1.00;99.90
19970;DHT22;10146;47.754;9.566;2023-01-20T09:08:02;-1.00;99.90
19970;DHT22;10146;47.754;9.566;2023-01-20T09:10:28;-1.00;99.90
19970;DHT22;10146;47.754;9.566;2023-01-20T09:12:56;-1.00;99.90
19970;DHT22;10146;47.754;9.566;2023-01-20T09:15:21;-1.00;99.90
19970;DHT22;10146;47.754;9.566;2023-01-20T09:17:47;-1.00;99.90
19970;DHT22;10146;47.754;9.566;2023-01-20T09:20:13;-1.00;99.90
19970;DHT22;10146;47.754;9.566;2023-01-20T09:22:38;-0.80;99.90
19970;DHT22;10146;47.754;9.566;2023-01-20T09:25:06;-0.70;99.90
19970;DHT22;10146;47.754;9.566;2023-01-20T09:27:32;-0.60;99.90
19970;DHT22;10146;47.754;9.566;2023-01-20T09:29:57;-0.70;99.90
19970;DHT22;10146;47.754;9.566;2023-01-20T09:32:23;-0.80;99.90
19970;DHT22;10146;47.754;9.566;2023-01-20T09:34:48;-0.70;99.90
19970;DHT22;10146;47.754;9.566;2023-01-20T09:37:14;-0.70;99.90
19970;DHT22;10146;47.754;9.566;2023-01-20T09:39:58;-0.60;99.90
19970;DHT22;10146;47.754;9.566;2023-01-20T09:45:38;-0.60;99.90
19970;DHT22;10146;47.754;9.566;2023-01-20T09:48:15;-0.50;99.90
19970;DHT22;10146;47.754;9.566;2023-01-20T09:51:03;-0.50;99.90
19970;DHT22;10146;47.754;9.566;2023-01-20T09:54:15;-0.30;99.90
19970;DHT22;10146;47.754;9.566;2023-01-20T09:56:46;-0.30;99.90
19970;DHT22;10146;47.754;9.566;2023-01-20T09:59:20;-0.30;99.90
19970;DHT22;10146;47.754;9.566;2023-01-20T10:01:51;-0.20;99.90
19970;DHT22;10146;47.754;9.566;2023-01-20T10:04:23;-0.30;99.90
19970;DHT22;10146;47.754;9.566;2023-01-20T10:07:02;-0.30;99.90
19970;DHT22;10146;47.754;9.566;2023-01-20T10:09:45;-0.30;99.90
19970;DHT22;10146;47.754;9.566;2023-01-20T10:15:16;-0.20;99.90
19970;DHT22;10146;47.754;9.566;2023-01-20T10:20:43;-0.30;99.90
19970;DHT22;10146;47.754;9.566;2023-01-20T10:26:24;-0.30;99.90
19970;DHT22;10146;47.754;9.566;2023-01-20T10:29:01;-0.10;99.90
19970;DHT22;10146;47.754;9.566;2023-01-20T10:31:31;0.00;99.90
19970;DHT22;10146;47.754;9.566;2023-01-20T10:34:05;0.00;99.90
19970;DHT22;10146;47.754;9.566;2023-01-20T10:36:33;0.10;99.90
19970;DHT22;10146;47.754;9.566;2023-01-20T10:39:32;0.00;99.90
19970;DHT22;10146;47.754;9.566;2023-01-20T10:42:04;0.00;99.90
19970;DHT22;10146;47.754;9.566;2023-01-20T10:44:33;0.00;99.90
19970;DHT22;10146;47.754;9.566;2023-01-20T10:53:03;0.00;99.90
19970;DHT22;10146;47.754;9.566;2023-01-20T10:55:52;0.20;99.90
19970;DHT22;10146;47.754;9.566;2023-01-20T10:58:24;0.30;99.90
19970;DHT22;10146;47.754;9.566;2023-01-20T11:00:50;0.50;99.90
19970;DHT22;10146;47.754;9.566;2023-01-20T11:03:18;0.60;99.90
19970;DHT22;10146;47.754;9.566;2023-01-20T11:05:46;0.50;99.90
19970;DHT22;10146;47.754;9.566;2023-01-20T11:08:20;0.70;99.90
19970;DHT22;10146;47.754;9.566;2023-01-20T11:10:49;1.00;99.90
19970;DHT22;10146;47.754;9.566;2023-01-20T11:13:16;1.10;99.90
19970;DHT22;10146;47.754;9.566;2023-01-20T11:15:50;1.30;99.90
19970;DHT22;10146;47.754;9.566;2023-01-20T11:26:02;1.70;99.90
19970;DHT22;10146;47.754;9.566;2023-01-20T11:28:44;1.40;99.90
19970;DHT22;10146;47.754;9.566;2023-01-20T11:31:11;1.00;99.90
19970;DHT22;10146;47.754;9.566;2023-01-20T11:33:36;1.00;99.90
19970;DHT22;10146;47.754;9.566;2023-01-20T11:36:16;1.00;99.90
19970;DHT22;10146;47.754;9.566;2023-01-20T11:38:49;1.00;99.90
19970;DHT22;10146;47.754;9.566;2023-01-20T11:41:21;1.10;99.90
19970;DHT22;10146;47.754;9.566;2023-01-20T11:43:49;1.00;99.90
19970;DHT22;10146;47.754;9.566;2023-01-20T11:48:44;0.40;99.90
19970;DHT22;10146;47.754;9.566;2023-01-20T11:51:21;0.30;99.90
19970;DHT22;10146;47.754;9.566;2023-01-20T11:53:50;0.20;99.90
19970;DHT22;10146;47.754;9.566;2023-01-20T11:56:24;0.10;99.90
19970;DHT22;10146;47.754;9.566;2023-01-20T11:58:59;0.10;99.90
19970;DHT22;10146;47.754;9.566;2023-01-20T12:01:49;0.00;99.90
19970;DHT22;10146;47.754;9.566;2023-01-20T12:04:22;0.20;99.90
19970;DHT22;10146;47.754;9.566;2023-01-20T12:07:00;0.20;99.90
19970;DHT22;10146;47.754;9.566;2023-01-20T12:09:33;0.20;99.90
19970;DHT22;10146;47.754;9.566;2023-01-20T12:14:49;0.10;99.90
19970;DHT22;10146;47.754;9.566;2023-01-20T12:20:22;0.30;99.90
19970;DHT22;10146;47.754;9.566;2023-01-20T12:25:45;0.20;99.90
19970;DHT22;10146;47.754;9.566;2023-01-20T12:28:59;0.10;99.90
19970;DHT22;10146;47.754;9.566;2023-01-20T12:31:08;0.10;99.90
19970;DHT22;10146;47.754;9.566;2023-01-20T12:33:43;0.10;99.90
19970;DHT22;10146;47.754;9.566;2023-01-20T12:47:22;0.40;99.90
19970;DHT22;10146;47.754;9.566;2023-01-20T12:50:08;0.50;99.90
19970;DHT22;10146;47.754;9.566;2023-01-20T12:58:57;0.40;99.90
19970;DHT22;10146;47.754;9.566;2023-01-20T13:10:38;0.10;99.90
19970;DHT22;10146;47.754;9.566;2023-01-20T13:16:36;0.00;99.90
19970;DHT22;10146;47.754;9.566;2023-01-20T13:19:37;0.20;99.90
19970;DHT22;10146;47.754;9.566;2023-01-20T13:22:10;0.30;99.90
19970;DHT22;10146;47.754;9.566;2023-01-20T13:24:37;0.30;99.90
19970;DHT22;10146;47.754;9.566;2023-01-20T13:27:03;0.30;99.90
19970;DHT22;10146;47.754;9.566;2023-01-20T13:32:02;0.40;99.90
19970;DHT22;10146;47.754;9.566;2023-01-20T13:39:48;0.50;99.90
19970;DHT22;10146;47.754;9.566;2023-01-20T13:58:16;0.80;99.90
19970;DHT22;10146;47.754;9.566;2023-01-20T14:00:42;0.60;99.90
19970;DHT22;10146;47.754;9.566;2023-01-20T14:03:28;0.60;99.90
19970;DHT22;10146;47.754;9.566;2023-01-20T14:06:06;0.50;99.90
19970;DHT22;10146;47.754;9.566;2023-01-20T14:08:40;0.70;99.90
19970;DHT22;10146;47.754;9.566;2023-01-20T14:11:12;0.60;99.90
19970;DHT22;10146;47.754;9.566;2023-01-20T14:13:39;0.60;99.90
19970;DHT22;10146;47.754;9.566;2023-01-20T14:16:05;0.50;99.90
19970;DHT22;10146;47.754;9.566;2023-01-20T14:18:32;0.50;99.90
19970;DHT22;10146;47.754;9.566;2023-01-20T14:21:19;0.40;99.90
19970;DHT22;10146;47.754;9.566;2023-01-20T14:23:45;0.40;99.90
19970;DHT22;10146;47.754;9.566;2023-01-20T14:26:20;0.40;99.90
19970;DHT22;10146;47.754;9.566;2023-01-20T14:28:55;0.50;99.90
19970;DHT22;10146;47.754;9.566;2023-01-20T14:31:37;0.40;99.90
19970;DHT22;10146;47.754;9.566;2023-01-20T14:36:48;0.50;99.90
19970;DHT22;10146;47.754;9.566;2023-01-20T14:39:23;0.60;99.90
19970;DHT22;10146;47.754;9.566;2023-01-20T14:41:54;0.40;99.90
19970;DHT22;10146;47.754;9.566;2023-01-20T14:44:26;0.40;99.90
19970;DHT22;10146;47.754;9.566;2023-01-20T14:46:54;0.40;99.90
19970;DHT22;10146;47.754;9.566;2023-01-20T14:49:22;0.40;99.90
19970;DHT22;10146;47.754;9.566;2023-01-20T14:51:49;0.50;99.90
19970;DHT22;10146;47.754;9.566;2023-01-20T14:57:20;0.20;99.90
19970;DHT22;10146;47.754;9.566;2023-01-20T14:59:58;0.20;99.90
19970;DHT22;10146;47.754;9.566;2023-01-20T15:02:33;0.10;99.90
19970;DHT22;10146;47.754;9.566;2023-01-20T15:04:59;0.00;99.90
19970;DHT22;10146;47.754;9.566;2023-01-20T15:07:25;-0.10;99.90
19970;DHT22;10146;47.754;9.566;2023-01-20T15:10:05;-0.10;99.90
19970;DHT22;10146;47.754;9.566;2023-01-20T15:15:14;-0.10;99.90
19970;DHT22;10146;47.754;9.566;2023-01-20T15:20:53;-0.10;99.90
19970;DHT22;10146;47.754;9.566;2023-01-20T15:23:21;-0.20;99.90
19970;DHT22;10146;47.754;9.566;2023-01-20T15:25:50;-0.30;99.90
19970;DHT22;10146;47.754;9.566;2023-01-20T15:28:21;-0.30;99.90
19970;DHT22;10146;47.754;9.566;2023-01-20T15:30:49;-0.40;99.90
19970;DHT22;10146;47.754;9.566;2023-01-20T15:33:15;-0.40;99.90
19970;DHT22;10146;47.754;9.566;2023-01-20T16:50:53;-0.80;99.90
19970;DHT22;10146;47.754;9.566;2023-01-20T16:53:19;-0.90;99.90
19970;DHT22;10146;47.754;9.566;2023-01-20T16:55:46;-1.00;99.90
19970;DHT22;10146;47.754;9.566;2023-01-20T16:58:14;-1.10;99.90
19970;DHT22;10146;47.754;9.566;2023-01-20T17:00:40;-1.10;99.90
19970;DHT22;10146;47.754;9.566;2023-01-20T17:03:06;-1.10;99.90
19970;DHT22;10146;47.754;9.566;2023-01-20T17:05:31;-1.10;99.90
19970;DHT22;10146;47.754;9.566;2023-01-20T17:07:57;-1.10;99.90
19970;DHT22;10146;47.754;9.566;2023-01-20T17:10:25;-1.10;99.90
19970;DHT22;10146;47.754;9.566;2023-01-20T17:12:52;-1.10;99.90
19970;DHT22;10146;47.754;9.566;2023-01-20T17:15:17;-1.00;99.90
19970;DHT22;10146;47.754;9.566;2023-01-20T17:17:50;-1.10;99.90
19970;DHT22;10146;47.754;9.566;2023-01-20T17:20:17;-1.10;99.90
19970;DHT22;10146;47.754;9.566;2023-01-20T17:22:43;-1.10;99.90
19970;DHT22;10146;47.754;9.566;2023-01-20T17:25:09;-1.00;99.90
19970;DHT22;10146;47.754;9.566;2023-01-20T17:27:36;-1.10;99.90
19970;DHT22;10146;47.754;9.566;2023-01-20T17:30:03;-1.10;99.90
19970;DHT22;10146;47.754;9.566;2023-01-20T17:32:29;-1.20;99.90
19970;DHT22;10146;47.754;9.566;2023-01-20T17:34:55;-1.20;99.90
19970;DHT22;10146;47.754;9.566;2023-01-20T17:37:20;-1.20;99.90
19970;DHT22;10146;47.754;9.566;2023-01-20T17:39:46;-1.20;99.90
19970;DHT22;10146;47.754;9.566;2023-01-20T17:42:12;-1.30;99.90
19970;DHT22;10146;47.754;9.566;2023-01-20T17:44:37;-1.40;99.90
19970;DHT22;10146;47.754;9.566;2023-01-20T17:47:04;-1.30;99.90
19970;DHT22;10146;47.754;9.566;2023-01-20T17:49:30;-1.30;99.90
19970;DHT22;10146;47.754;9.566;2023-01-20T17:51:55;-1.30;99.90
19970;DHT22;10146;47.754;9.566;2023-01-20T17:54:21;-1.30;99.90
19970;DHT22;10146;47.754;9.566;2023-01-20T17:56:47;-1.30;99.90
19970;DHT22;10146;47.754;9.566;2023-01-20T17:59:14;-1.30;99.90
19970;DHT22;10146;47.754;9.566;2023-01-20T18:01:40;-1.40;99.90
19970;DHT22;10146;47.754;9.566;2023-01-20T18:04:05;-1.40;99.90
19970;DHT22;10146;47.754;9.566;2023-01-20T18:06:37;-1.40;99.90
19970;DHT22;10146;47.754;9.566;2023-01-20T18:09:05;-1.40;99.90
19970;DHT22;10146;47.754;9.566;2023-01-20T18:11:33;-1.40;99.90
19970;DHT22;10146;47.754;9.566;2023-01-20T18:14:00;-1.40;99.90
19970;DHT22;10146;47.754;9.566;2023-01-20T18:16:30;-1.40;99.90
19970;DHT22;10146;47.754;9.566;2023-01-20T18:18:56;-1.50;99.90
19970;DHT22;10146;47.754;9.566;2023-01-20T18:21:44;-1.60;99.90
19970;DHT22;10146;47.754;9.566;2023-01-20T18:24:10;-1.70;99.90
19970;DHT22;10146;47.754;9.566;2023-01-20T18:26:38;-1.80;99.90
19970;DHT22;10146;47.754;9.566;2023-01-20T18:29:11;-1.90;99.90
19970;DHT22;10146;47.754;9.566;2023-01-20T18:31:37;-2.00;99.90
19970;DHT22;10146;47.754;9.566;2023-01-20T18:34:05;-2.00;99.90
19970;DHT22;10146;47.754;9.566;2023-01-20T18:36:36;-2.00;99.90
19970;DHT22;10146;47.754;9.566;2023-01-20T18:39:04;-1.90;99.90
19970;DHT22;10146;47.754;9.566;2023-01-20T18:41:32;-1.90;99.90
19970;DHT22;10146;47.754;9.566;2023-01-20T18:43:58;-2.00;99.90
19970;DHT22;10146;47.754;9.566;2023-01-20T18:46:25;-2.00;99.90
19970;DHT22;10146;47.754;9.566;2023-01-20T18:48:51;-2.00;99.90
19970;DHT22;10146;47.754;9.566;2023-01-20T18:51:20;-2.10;99.90
19970;DHT22;10146;47.754;9.566;2023-01-20T18:56:20;-2.10;99.90
19970;DHT22;10146;47.754;9.566;2023-01-20T18:58:46;-2.20;99.90
19970;DHT22;10146;47.754;9.566;2023-01-20T19:01:21;-2.20;99.90
19970;DHT22;10146;47.754;9.566;2023-01-20T19:03:47;-2.30;99.90
19970;DHT22;10146;47.754;9.566;2023-01-20T19:06:22;-2.30;99.90
19970;DHT22;10146;47.754;9.566;2023-01-20T19:08:48;-2.20;99.90
19970;DHT22;10146;47.754;9.566;2023-01-20T19:11:16;-2.10;99.90